Seaton Dump, Arkansas
Current Conditions -  °F | °C
As of 10:35 PM on Thursday 18 Dec 2014 (Local Time) from KSGT Reporting Station
Overcast Overcast  
Wind Chill: 39°   Ceiling: 600
Heat Index: 43°   Visibility: NA
Dew Point: 39°   Wind: 7mph
Humidity: 87%   Direction: 40°NE
Pressure: 30.25"   Gusts: NA
Location:  34.5894°N, 91.9107°W
Report Text: KSGT 190435Z 04006KT BKN006 BKN041 OVC048 06/04 A3025 RMK AO1
Loading
Personal Weather Stations






























Interactive Weather Map New forecast layout! Learn more

10-Day Weather Forecast

Advertisements
Track Severe Weather on mobile